createdAt,value
2023-01-27T00:03:03.775Z,1.12
2023-01-27T00:09:16.155Z,1.82
2023-01-27T00:15:26.860Z,0.93
2023-01-27T00:21:53.105Z,2.08
2023-01-27T00:28:07.624Z,1.52
2023-01-27T00:34:15.246Z,1.32
2023-01-27T00:40:25.115Z,1.10
2023-01-27T00:46:32.826Z,1.75
2023-01-27T00:52:47.039Z,1.92
2023-01-27T00:58:58.340Z,1.55
2023-01-27T01:05:07.749Z,1.20
2023-01-27T01:11:22.044Z,1.22
2023-01-27T01:17:31.177Z,1.98
2023-01-27T01:23:41.355Z,1.62
2023-01-27T01:29:55.271Z,1.37
2023-01-27T01:36:10.205Z,1.67
2023-01-27T01:42:19.488Z,1.75
2023-01-27T01:48:35.163Z,2.10
2023-01-27T01:54:47.470Z,1.67
2023-01-27T02:00:58.883Z,1.50
2023-01-27T02:07:08.172Z,2.12
2023-01-27T02:13:19.780Z,1.82
2023-01-27T02:19:29.787Z,1.87
2023-01-27T02:26:07.323Z,1.75
2023-01-27T02:32:28.770Z,1.70
2023-01-27T02:38:40.608Z,1.67
2023-01-27T02:44:50.825Z,1.30
2023-01-27T02:51:02.694Z,1.35
2023-01-27T02:57:14.718Z,1.12
2023-01-27T03:03:23.850Z,1.52
2023-01-27T03:09:34.728Z,1.30
2023-01-27T03:16:02.912Z,1.00
2023-01-27T03:22:12.634Z,1.02
2023-01-27T03:28:23.785Z,1.40
2023-01-27T03:34:32.902Z,1.05
2023-01-27T03:40:57.119Z,1.30
2023-01-27T03:47:07.354Z,1.50
2023-01-27T03:53:17.311Z,1.45
2023-01-27T03:59:28.863Z,1.00
2023-01-27T04:05:56.108Z,1.50
2023-01-27T04:12:07.304Z,1.15
2023-01-27T04:18:18.568Z,0.93
2023-01-27T04:24:27.342Z,1.07
2023-01-27T04:30:39.135Z,1.35
2023-01-27T04:36:49.602Z,1.95
2023-01-27T04:43:02.621Z,1.37
2023-01-27T04:49:13.155Z,1.22
2023-01-27T04:55:24.126Z,1.82
2023-01-27T05:01:37.196Z,1.30
2023-01-27T05:07:49.062Z,1.57
2023-01-27T05:14:00.818Z,1.40
2023-01-27T05:20:09.966Z,2.22
2023-01-27T05:26:20.583Z,1.67
2023-01-27T05:32:29.738Z,1.75
2023-01-27T05:38:37.278Z,1.45
2023-01-27T05:44:50.699Z,0.85
2023-01-27T05:51:03.835Z,1.65
2023-01-27T05:57:13.743Z,2.30
2023-01-27T06:03:26.477Z,1.62
2023-01-27T06:09:36.594Z,1.85
2023-01-27T06:15:49.776Z,1.85
2023-01-27T06:22:03.613Z,2.22
2023-01-27T06:28:27.881Z,1.77
2023-01-27T06:34:28.081Z,1.72
2023-01-27T06:40:37.397Z,1.40
2023-01-27T06:46:46.944Z,1.20
2023-01-27T06:52:57.260Z,0.93
2023-01-27T06:59:08.121Z,1.57
2023-01-27T07:05:18.380Z,1.12
2023-01-27T07:11:29.585Z,1.40
2023-01-27T07:17:38.881Z,1.75
2023-01-27T07:23:50.037Z,1.27
2023-01-27T07:30:03.227Z,1.20
2023-01-27T07:36:15.706Z,1.50
2023-01-27T07:42:26.933Z,1.25
2023-01-27T07:48:36.143Z,1.22
2023-01-27T07:54:46.047Z,1.22
2023-01-27T08:01:00.996Z,1.10
2023-01-27T08:07:13.598Z,1.90
2023-01-27T08:13:23.725Z,1.42
2023-01-27T08:19:35.535Z,1.35
2023-01-27T08:25:47.813Z,1.45
2023-01-27T08:32:01.038Z,1.20
2023-01-27T08:38:10.401Z,1.10
2023-01-27T08:44:21.883Z,1.35
2023-01-27T08:50:31.541Z,1.27
2023-01-27T08:56:39.555Z,1.37
2023-01-27T09:02:53.369Z,1.62
2023-01-27T09:09:14.734Z,1.42
2023-01-27T09:15:27.258Z,1.98
2023-01-27T09:21:38.948Z,1.33
2023-01-27T09:27:49.900Z,1.10
2023-01-27T09:34:01.848Z,1.17
2023-01-27T09:40:18.782Z,1.35
2023-01-27T09:46:52.937Z,1.85
2023-01-27T09:53:16.264Z,1.17
2023-01-27T09:59:46.997Z,1.40
2023-01-27T10:12:41.108Z,0.83
2023-01-27T10:18:56.377Z,1.17
2023-01-27T10:25:12.623Z,1.45
2023-01-27T10:31:23.796Z,1.83
2023-01-27T10:37:37.464Z,1.57
2023-01-27T10:43:51.397Z,1.20
2023-01-27T10:50:00.810Z,1.15
2023-01-27T10:56:11.810Z,0.90
2023-01-27T11:02:25.242Z,1.42
2023-01-27T11:08:36.494Z,1.12
2023-01-27T11:14:47.476Z,1.30
2023-01-27T11:20:55.319Z,1.17
2023-01-27T11:27:09.638Z,1.20
2023-01-27T11:33:23.672Z,1.32
2023-01-27T11:39:33.105Z,1.10
2023-01-27T11:45:43.105Z,1.00
2023-01-27T11:51:50.918Z,1.98
2023-01-27T11:58:03.238Z,1.10
2023-01-27T12:04:13.566Z,1.55
2023-01-27T12:10:31.059Z,1.42
2023-01-27T12:16:48.139Z,1.50
2023-01-27T12:29:04.879Z,1.43
2023-01-27T12:35:20.635Z,1.40
2023-01-27T12:41:31.610Z,1.55
2023-01-27T12:47:42.728Z,1.07
2023-01-27T12:53:55.070Z,1.37
2023-01-27T13:00:05.104Z,1.20
2023-01-27T13:06:17.208Z,1.17
2023-01-27T13:12:28.615Z,1.52
2023-01-27T13:18:41.425Z,1.35
2023-01-27T13:24:52.071Z,1.27
2023-01-27T13:31:08.936Z,1.40
2023-01-27T13:43:29.685Z,1.70
2023-01-27T13:49:41.100Z,3.20
2023-01-27T13:55:59.960Z,5.28
2023-01-27T14:02:32.145Z,7.60
2023-01-27T14:09:01.517Z,6.70
2023-01-27T14:15:21.178Z,4.70
2023-01-27T14:21:42.907Z,5.22
2023-01-27T14:27:48.050Z,3.40
2023-01-27T14:34:05.573Z,3.30
2023-01-27T14:40:24.245Z,2.47
2023-01-27T14:46:43.728Z,2.70
2023-01-27T14:53:03.239Z,2.85
2023-01-27T14:59:18.858Z,2.20
2023-01-27T15:05:29.466Z,2.35
2023-01-27T15:11:56.082Z,2.42
2023-01-27T15:18:18.397Z,2.55
2023-01-27T15:24:45.539Z,2.35
2023-01-27T15:31:32.260Z,2.15
2023-01-27T15:37:43.043Z,2.30
2023-01-27T15:44:19.520Z,2.08
2023-01-27T15:50:33.197Z,3.30
2023-01-27T15:56:48.853Z,1.92
2023-01-27T16:02:59.093Z,1.95
2023-01-27T16:09:12.443Z,2.12
2023-01-27T16:15:37.809Z,1.62
2023-01-27T16:21:54.860Z,1.85
2023-01-27T16:28:05.210Z,1.90
2023-01-27T16:34:22.707Z,2.67
2023-01-27T16:40:32.536Z,1.95
2023-01-27T16:46:44.694Z,2.50
2023-01-27T16:52:52.224Z,1.60
2023-01-27T16:59:06.270Z,1.35
2023-01-27T17:05:20.294Z,1.47
2023-01-27T17:11:28.301Z,1.80
2023-01-27T17:17:38.760Z,2.87
2023-01-27T17:23:46.235Z,1.77
2023-01-27T17:29:53.841Z,1.60
2023-01-27T17:36:08.157Z,1.85
2023-01-27T17:42:19.460Z,2.15
2023-01-27T17:48:31.590Z,2.30
2023-01-27T17:54:43.175Z,1.77
2023-01-27T18:00:53.122Z,1.65
2023-01-27T18:07:06.443Z,1.50
2023-01-27T18:13:24.709Z,1.42
2023-01-27T18:19:35.168Z,1.92
2023-01-27T18:25:46.442Z,1.50
2023-01-27T18:31:58.075Z,1.67
2023-01-27T18:38:09.823Z,1.32
2023-01-27T18:44:21.259Z,2.10
2023-01-27T18:50:31.530Z,1.60
2023-01-27T18:56:42.328Z,1.30
2023-01-27T19:02:52.250Z,1.62
2023-01-27T19:09:05.738Z,1.10
2023-01-27T19:15:16.442Z,1.10
2023-01-27T19:21:30.177Z,1.80
2023-01-27T19:27:42.699Z,1.37
2023-01-27T19:33:51.791Z,1.37
2023-01-27T19:40:05.037Z,1.52
2023-01-27T19:46:24.047Z,1.42
2023-01-27T19:52:36.269Z,1.22
2023-01-27T19:58:49.229Z,1.40
2023-01-27T20:04:57.751Z,1.15
2023-01-27T20:11:08.152Z,1.45
2023-01-27T20:17:21.507Z,2.15
2023-01-27T20:23:31.178Z,1.77
2023-01-27T20:29:40.569Z,1.30
2023-01-27T20:35:52.979Z,1.85
2023-01-27T20:42:03.025Z,1.85
2023-01-27T20:48:14.434Z,1.55
2023-01-27T20:54:26.151Z,1.32
2023-01-27T21:00:36.826Z,1.15
2023-01-27T21:06:49.343Z,1.27
2023-01-27T21:13:01.598Z,1.37
2023-01-27T21:19:13.259Z,1.27
2023-01-27T21:25:22.927Z,1.22
2023-01-27T21:31:34.078Z,1.10
2023-01-27T21:37:43.458Z,1.20
2023-01-27T21:44:08.242Z,0.90
2023-01-27T21:50:18.142Z,1.30
2023-01-27T21:56:25.970Z,0.93
2023-01-27T22:02:38.358Z,0.93
2023-01-27T22:08:49.501Z,1.32
2023-01-27T22:14:57.089Z,0.80
2023-01-27T22:21:06.014Z,36.33
2023-01-27T22:27:14.478Z,111.95
2023-01-27T22:33:24.254Z,56.90
2023-01-27T22:39:35.291Z,36.70
2023-01-27T22:45:47.544Z,33.67
2023-01-27T22:51:58.581Z,26.02
2023-01-27T22:58:06.941Z,19.07
2023-01-27T23:04:21.932Z,16.15
2023-01-27T23:10:30.709Z,12.60
2023-01-27T23:16:44.600Z,9.70
2023-01-27T23:22:58.374Z,8.10
2023-01-27T23:29:24.097Z,8.35
2023-01-27T23:41:41.346Z,7.03
2023-01-27T23:47:50.990Z,5.92
2023-01-27T23:54:02.926Z,4.50
